Terminal Aerodrome Forecast
Issued by NWS

Home | Current Version | Previous Version | Text Only | Print | Product List | Glossary On
Versions: 1 2 3 4 5 6 7 8 9 10 11 12 13 14 15 16 17
000
FTUS42 KMLB 181738
TAFSUA
TAF
KSUA 181738Z 1818/1918 06015G25KT P6SM SCT015 BKN025
     FM182100 05014G20KT P6SM VCSH SCT030 BKN060
     FM190200 05009KT P6SM VCSH SCT025 BKN050
     FM191500 05011KT P6SM SCT020 BKN040=

USA.gov is the U.S. government's official web portal to all federal, state and local government web resources and services.